Time;durP1;ratioP1;P1;durP2;ratioP2;P2;SDS_P1;SDS_P2;PMS_P1;PMS_P2;Temp;Humidity;BMP_temperature;BMP_pressure;BME280_temperature;BME280_humidity;BME280_pressure;Samples;Min_cycle;Max_cycle;Signal;HPM_P1;HPM_P2
2022/09/02 00:00:10;;;;;;;16.08;6.70;;;;;;;23.51;65.21;100675.19;2098154;28;20054;-70
2022/09/02 00:01:37;;;;;;;14.25;7.18;;;;;;;23.50;65.15;100674.31;2097610;28;20499;-70
2022/09/02 00:02:58;;;;;;;13.13;6.40;;;;;;;23.47;65.29;100679.81;2086065;28;20122;-70
2022/09/02 00:04:23;;;;;;;13.63;7.00;;;;;;;23.44;65.21;100674.50;2090933;28;20055;-70
2022/09/02 00:05:45;;;;;;;11.52;6.15;;;;;;;23.41;65.44;100675.53;2094233;28;20402;-70
2022/09/02 00:07:07;;;;;;;;;;;;;;;23.35;65.40;100681.16;2090441;28;20552;-70
2022/09/02 00:08:30;;;;;;;10.73;6.65;;;;;;;23.36;65.70;100676.66;2099278;28;19919;-70
2022/09/02 00:09:53;;;;;;;12.18;7.10;;;;;;;23.33;65.80;100680.31;2093700;28;20056;-70
2022/09/02 00:11:17;;;;;;;13.10;6.32;;;;;;;23.32;65.79;100681.25;2099576;28;20150;-70
2022/09/02 00:12:40;;;;;;;12.77;6.80;;;;;;;23.34;65.73;100684.78;2094822;28;20048;-70
2022/09/02 00:14:05;;;;;;;10.82;5.97;;;;;;;23.37;65.89;100684.66;2095914;28;20047;-70
2022/09/02 00:15:30;;;;;;;12.77;6.47;;;;;;;23.40;65.73;100681.84;2085779;28;20037;-71
2022/09/02 00:16:52;;;;;;;15.25;6.90;;;;;;;23.42;65.63;100681.78;2084819;28;20041;-70
2022/09/02 00:18:15;;;;;;;10.30;6.00;;;;;;;23.44;65.59;100677.19;2091077;28;20040;-71
2022/09/02 00:19:38;;;;;;;13.13;6.75;;;;;;;23.45;65.58;100681.66;2099197;28;20071;-70
2022/09/02 00:21:00;;;;;;;13.52;6.25;;;;;;;23.48;65.58;100688.78;2095785;28;20044;-70
2022/09/02 00:22:23;;;;;;;15.25;6.80;;;;;;;23.47;65.39;100682.53;2093773;28;20053;-70
2022/09/02 00:23:45;;;;;;;13.27;6.47;;;;;;;23.47;65.53;100687.91;2093277;28;20077;-70
2022/09/02 00:25:07;;;;;;;;;;;;;;;23.42;65.34;100687.19;2093915;28;20052;-70
2022/09/02 00:26:29;;;;;;;11.48;6.45;;;;;;;23.40;65.62;100686.34;2097041;28;20283;-70
2022/09/02 00:27:51;;;;;;;12.10;6.50;;;;;;;23.41;65.76;100685.41;2087848;28;20049;-70
2022/09/02 00:29:14;;;;;;;13.80;6.95;;;;;;;23.42;65.73;100681.78;2093456;28;20086;-70
2022/09/02 00:30:39;;;;;;;13.75;6.05;;;;;;;23.44;65.90;100685.28;2092326;28;20056;-71
2022/09/02 00:32:01;;;;;;;11.82;6.90;;;;;;;23.44;65.75;100685.28;2084750;28;20045;-70
2022/09/02 00:33:23;;;;;;;;;;;;;;;23.43;65.70;100686.25;2085692;28;20049;-70
2022/09/02 00:34:45;;;;;;;12.80;6.13;;;;;;;23.44;65.61;100685.28;2094794;28;19936;-71
2022/09/02 00:36:08;;;;;;;;;;;;;;;23.42;65.40;100679.09;2094274;28;20452;-71
2022/09/02 00:37:30;;;;;;;10.95;6.07;;;;;;;23.43;65.43;100688.94;2101935;28;19920;-71
2022/09/02 00:38:53;;;;;;;11.27;7.03;;;;;;;23.44;65.24;100685.28;2101855;28;20379;-70
2022/09/02 00:40:15;;;;;;;13.02;6.93;;;;;;;23.45;65.49;100687.94;2094368;28;20451;-70
2022/09/02 00:41:40;;;;;;;11.07;6.85;;;;;;;23.45;65.31;100684.34;2101202;28;20048;-71
2022/09/02 00:43:04;;;;;;;12.65;7.03;;;;;;;23.44;65.66;100686.16;2088546;28;20532;-71
2022/09/02 00:44:27;;;;;;;15.25;6.60;;;;;;;23.44;65.75;100685.28;2089468;28;20591;-71
2022/09/02 00:45:52;;;;;;;15.38;6.95;;;;;;;23.43;65.61;100688.94;2084458;28;20045;-71
2022/09/02 00:47:15;;;;;;;12.15;6.25;;;;;;;23.42;65.83;100689.88;2086680;28;20075;-71
2022/09/02 00:48:40;;;;;;;11.20;6.57;;;;;;;23.43;65.68;100694.34;2099935;28;20614;-71
2022/09/02 00:50:05;;;;;;;14.10;7.32;;;;;;;23.41;65.94;100686.31;2103341;28;20109;-71
2022/09/02 00:51:33;;;;;;;11.95;6.05;;;;;;;23.40;65.81;100689.94;2096992;28;20101;-71
2022/09/02 00:53:00;;;;;;;13.77;7.15;;;;;;;23.39;65.76;100684.59;2100526;28;20048;-70
2022/09/02 00:54:26;;;;;;;13.55;6.88;;;;;;;23.38;65.95;100685.53;2097721;28;20080;-71
2022/09/02 00:55:49;;;;;;;9.93;6.13;;;;;;;23.39;66.13;100692.69;2095541;28;20049;-70
2022/09/02 00:57:18;;;;;;;12.20;6.57;;;;;;;23.39;66.03;100693.56;2095170;28;20526;-71
2022/09/02 00:58:42;;;;;;;15.52;6.78;;;;;;;23.40;66.10;100689.06;2095112;28;20045;-70
2022/09/02 01:00:11;;;;;;;11.65;7.07;;;;;;;23.41;66.27;100691.69;2086808;28;20516;-70
2022/09/02 01:01:34;;;;;;;13.93;6.30;;;;;;;23.43;66.24;100691.66;2098775;28;20053;-70
2022/09/02 01:02:59;;;;;;;12.52;6.70;;;;;;;23.42;66.23;100688.06;2101723;28;20039;-70
2022/09/02 01:04:22;;;;;;;12.93;6.40;;;;;;;23.42;66.36;100692.56;2095255;28;20044;-71
2022/09/02 01:05:47;;;;;;;10.77;6.53;;;;;;;23.42;66.32;100684.50;2093444;28;20052;-71
2022/09/02 01:07:09;;;;;;;11.52;6.90;;;;;;;23.43;66.43;100689.78;2099017;28;20132;-70
2022/09/02 01:08:35;;;;;;;13.73;6.43;;;;;;;23.44;66.17;100675.38;2103303;28;20571;-71
2022/09/02 01:09:58;;;;;;;11.13;6.35;;;;;;;23.44;66.28;100688.88;2105952;28;20040;-71
2022/09/02 01:11:20;;;;;;;12.65;6.65;;;;;;;23.40;66.15;100689.94;2095045;28;20036;-70
2022/09/02 01:12:43;;;;;;;13.73;6.30;;;;;;;23.38;66.33;100682.84;2086795;28;20056;-70
2022/09/02 01:14:08;;;;;;;11.20;6.68;;;;;;;23.34;66.41;100679.38;2095789;28;20048;-70
2022/09/02 01:15:30;;;;;;;10.93;6.20;;;;;;;23.34;66.66;100684.78;2095331;28;20060;-70
2022/09/02 01:16:59;;;;;;;13.57;6.47;;;;;;;23.32;66.61;100683.94;2095045;28;20056;-70
2022/09/02 01:18:27;;;;;;;10.65;6.65;;;;;;;23.31;66.81;100679.50;2092978;28;20044;-71
2022/09/02 01:19:52;;;;;;;13.30;6.47;;;;;;;23.31;66.68;100679.50;2095667;28;20078;-70
2022/09/02 01:21:16;;;;;;;11.82;6.72;;;;;;;23.33;66.58;100682.13;2097427;28;20079;-70
2022/09/02 01:22:40;;;;;;;12.25;7.35;;;;;;;23.34;66.56;100673.13;2089487;28;20496;-70
2022/09/02 01:24:04;;;;;;;14.07;7.13;;;;;;;23.35;66.55;100672.19;2099846;28;20064;-70
2022/09/02 01:25:29;;;;;;;14.95;7.07;;;;;;;23.36;66.78;100676.66;2100284;28;20689;-70
2022/09/02 01:27:07;;;;;;;12.40;6.95;;;;;;;23.37;66.61;100676.56;2094508;28;20048;-70
2022/09/02 01:28:32;;;;;;;10.25;6.53;;;;;;;23.36;66.75;100674.84;2090090;28;20599;-70
2022/09/02 01:29:58;;;;;;;13.13;7.88;;;;;;;23.33;67.05;100680.31;2085581;28;20052;-70
2022/09/02 01:31:21;;;;;;;10.98;6.43;;;;;;;23.32;67.06;100677.69;2101267;28;20594;-70
2022/09/02 01:32:42;;;;;;;10.00;6.40;;;;;;;23.31;67.53;100678.59;2089095;28;20048;-70
2022/09/02 01:34:05;;;;;;;11.70;6.68;;;;;;;23.32;67.59;100680.38;2099912;28;20048;-69
2022/09/02 01:35:27;;;;;;;14.05;6.60;;;;;;;23.28;67.38;100685.00;2097584;28;20091;-70
2022/09/02 01:36:50;;;;;;;18.15;7.47;;;;;;;23.26;67.61;100670.72;2098494;28;20062;-70
2022/09/02 01:38:14;;;;;;;10.35;6.70;;;;;;;23.28;67.41;100681.44;2097176;28;20059;-70
2022/09/02 01:39:36;;;;;;;14.15;7.18;;;;;;;23.27;67.66;100675.16;2097564;28;20041;-70
2022/09/02 01:40:58;;;;;;;12.07;6.80;;;;;;;23.27;67.74;100671.59;2096978;28;20043;-70
2022/09/02 01:42:21;;;;;;;15.60;6.85;;;;;;;23.28;67.83;100674.25;2091075;28;20053;-70
2022/09/02 01:43:43;;;;;;;11.23;7.20;;;;;;;23.28;68.01;100674.25;2085491;28;20394;-70
2022/09/02 01:45:07;;;;;;;13.82;7.05;;;;;;;23.27;67.98;100674.28;2098584;28;20070;-70
2022/09/02 01:46:29;;;;;;;13.90;7.40;;;;;;;23.27;68.14;100674.28;2089408;28;20059;-70
2022/09/02 01:47:52;;;;;;;13.52;7.63;;;;;;;23.23;68.40;100675.34;2083881;28;20051;-70
2022/09/02 01:49:15;;;;;;;10.40;6.75;;;;;;;23.23;68.62;100675.34;2083578;28;20505;-70
2022/09/02 01:50:38;;;;;;;13.40;7.22;;;;;;;23.22;68.71;100670.91;2091690;28;20041;-69
2022/09/02 01:52:00;;;;;;;13.00;7.15;;;;;;;23.22;68.71;100666.41;2094858;28;20132;-70
2022/09/02 01:53:23;;;;;;;12.50;7.80;;;;;;;23.24;68.86;100664.50;2102404;28;20425;-70
2022/09/02 01:54:48;;;;;;;10.90;7.20;;;;;;;23.24;68.75;100666.31;2094828;28;20052;-70
2022/09/02 01:56:10;;;;;;;13.85;7.60;;;;;;;23.23;68.94;100665.47;2085493;28;20037;-71
2022/09/02 01:57:32;;;;;;;18.38;7.53;;;;;;;23.22;69.09;100666.41;2093429;28;20052;-70
2022/09/02 01:58:55;;;;;;;12.55;6.50;;;;;;;23.23;69.23;100661.88;2090378;28;20036;-70
2022/09/02 02:00:17;;;;;;;18.38;7.45;;;;;;;23.23;69.50;100667.28;2100587;28;20396;-71
2022/09/02 02:01:40;;;;;;;13.70;6.85;;;;;;;23.21;69.40;100661.94;2089858;28;20052;-70
2022/09/02 02:03:01;;;;;;;13.35;7.25;;;;;;;23.21;69.65;100655.66;2091795;28;20147;-71
2022/09/02 02:04:27;;;;;;;13.60;7.30;;;;;;;23.19;69.48;100655.72;2094799;28;20044;-70
2022/09/02 02:05:52;;;;;;;10.63;6.82;;;;;;;23.16;69.74;100657.66;2092568;28;20154;-70
2022/09/02 02:07:17;;;;;;;15.18;7.88;;;;;;;23.11;70.04;100670.41;2092550;28;20052;-70
2022/09/02 02:08:41;;;;;;;18.17;8.55;;;;;;;23.08;70.31;100665.16;2088405;28;20078;-70
2022/09/02 02:10:09;;;;;;;13.10;7.72;;;;;;;23.07;70.72;100666.06;2090230;28;20048;-70
2022/09/02 02:11:32;;;;;;;13.55;7.57;;;;;;;23.06;70.81;100665.19;2087066;28;20048;-70
2022/09/02 02:12:54;;;;;;;15.60;7.38;;;;;;;23.09;70.80;100666.91;2083774;28;20052;-70
2022/09/02 02:14:18;;;;;;;17.02;7.10;;;;;;;23.10;71.20;100668.66;2083959;28;20075;-70
2022/09/02 02:15:44;;;;;;;11.70;7.25;;;;;;;23.11;71.21;100670.41;2092559;28;20122;-70
2022/09/02 02:17:06;;;;;;;13.80;8.32;;;;;;;23.09;71.30;100667.78;2086036;28;20064;-70
2022/09/02 02:18:29;;;;;;;14.45;7.25;;;;;;;23.08;71.47;100668.72;2085955;28;20093;-70
2022/09/02 02:19:52;;;;;;;16.27;7.47;;;;;;;23.08;71.57;100671.41;2094675;28;20073;-70
2022/09/02 02:21:14;;;;;;;12.82;7.13;;;;;;;23.08;71.78;100670.53;2102351;28;20503;-70
2022/09/02 02:22:37;;;;;;;16.00;7.68;;;;;;;23.07;71.73;100666.97;2102641;28;20512;-70
2022/09/02 02:24:02;;;;;;;14.73;8.23;;;;;;;23.08;71.86;100671.41;2094253;28;20041;-70
2022/09/02 02:25:26;;;;;;;13.38;7.35;;;;;;;23.05;71.75;100674.22;2091226;28;20053;-70
2022/09/02 02:26:49;;;;;;;13.60;7.57;;;;;;;23.02;71.73;100674.34;2092268;28;20115;-70
2022/09/02 02:28:14;;;;;;;12.23;7.80;;;;;;;23.00;71.92;100673.50;2093619;28;20501;-70
2022/09/02 02:29:37;;;;;;;14.43;8.15;;;;;;;22.98;72.04;100676.25;2092023;28;20064;-70
2022/09/02 02:31:00;;;;;;;12.73;7.05;;;;;;;22.93;71.92;100675.53;2084829;28;20079;-71
2022/09/02 02:32:22;;;;;;;11.35;7.80;;;;;;;22.83;72.26;100671.44;2089060;28;20540;-71
2022/09/02 02:33:46;;;;;;;15.75;7.18;;;;;;;22.74;72.66;100674.47;2096190;28;20076;-70
2022/09/02 02:35:09;;;;;;;14.45;7.65;;;;;;;22.73;73.16;100683.47;2095665;28;20044;-70
2022/09/02 02:36:32;;;;;;;13.57;7.13;;;;;;;22.77;73.22;100685.13;2092226;28;20049;-70
2022/09/02 02:37:56;;;;;;;15.85;7.55;;;;;;;22.83;73.06;100692.09;2091550;28;20123;-70
2022/09/02 02:39:19;;;;;;;13.07;8.00;;;;;;;22.86;72.97;100684.78;2092635;28;20501;-70
2022/09/02 02:40:42;;;;;;;13.30;8.07;;;;;;;22.86;72.80;100686.59;2098344;28;20039;-71
2022/09/02 02:42:05;;;;;;;15.35;7.70;;;;;;;22.86;72.98;100684.78;2088703;28;20060;-70
2022/09/02 02:43:28;;;;;;;13.45;7.50;;;;;;;22.90;73.10;100689.13;2086640;28;20036;-70
2022/09/02 02:44:50;;;;;;;16.58;7.88;;;;;;;22.93;72.93;100686.31;2083470;28;20496;-70
2022/09/02 02:46:13;;;;;;;17.40;7.57;;;;;;;22.94;72.86;100685.38;2094446;28;20040;-70
2022/09/02 02:47:37;;;;;;;15.07;6.95;;;;;;;22.96;72.60;100690.72;2094160;28;20063;-70
2022/09/02 02:49:00;;;;;;;15.80;7.07;;;;;;;22.89;72.51;100699.97;2086406;28;20041;-70
2022/09/02 02:50:22;;;;;;;12.32;7.25;;;;;;;22.79;72.80;100695.81;2085977;28;20138;-70
2022/09/02 02:51:44;;;;;;;14.68;6.78;;;;;;;22.74;73.19;100690.59;2095492;28;20664;-70
2022/09/02 02:53:07;;;;;;;11.60;7.38;;;;;;;22.77;73.21;100693.22;2088606;28;20049;-71
2022/09/02 02:54:30;;;;;;;12.07;6.80;;;;;;;22.81;73.13;100694.84;2083502;28;20041;-71
2022/09/02 02:55:54;;;;;;;12.18;7.03;;;;;;;22.82;73.02;100695.72;2083570;28;20414;-70
2022/09/02 02:57:16;;;;;;;10.25;6.57;;;;;;;22.82;72.87;100699.28;2094072;28;20044;-70
2022/09/02 02:58:39;;;;;;;;;;;;;;;22.80;72.90;100692.19;2098038;28;20054;-70
2022/09/02 03:00:07;;;;;;;12.10;7.07;;;;;;;22.77;73.02;100703.09;2096575;28;19921;-70
2022/09/02 03:01:30;;;;;;;15.13;7.50;;;;;;;22.76;73.12;100698.63;2090470;28;20505;-70
2022/09/02 03:02:56;;;;;;;12.07;7.13;;;;;;;22.77;72.97;100703.97;2091053;28;20044;-71
2022/09/02 03:04:18;;;;;;;12.80;7.30;;;;;;;22.74;72.94;100693.31;2086171;28;20052;-70
2022/09/02 03:05:41;;;;;;;15.32;7.30;;;;;;;22.66;73.16;100701.59;2091174;28;20047;-71
2022/09/02 03:07:05;;;;;;;13.80;7.50;;;;;;;22.66;73.43;100698.03;2094301;28;20052;-70
2022/09/02 03:08:28;;;;;;;14.23;7.47;;;;;;;22.67;73.30;100702.50;2090790;28;20107;-70
2022/09/02 03:09:53;;;;;;;14.20;6.80;;;;;;;22.72;73.42;100703.19;2083271;28;20136;-70
2022/09/02 03:11:16;;;;;;;13.77;7.40;;;;;;;22.75;73.35;100696.88;2085677;28;20047;-70
2022/09/02 03:12:39;;;;;;;15.55;7.43;;;;;;;22.76;73.12;100696.81;2100974;28;20056;-70
2022/09/02 03:14:02;;;;;;;15.85;7.55;;;;;;;22.77;72.79;100692.31;2087841;28;20053;-70
2022/09/02 03:15:26;;;;;;;10.88;6.70;;;;;;;22.73;72.91;100688.84;2083213;28;20060;-70
2022/09/02 03:16:48;;;;;;;14.00;7.75;;;;;;;22.62;73.21;100691.91;2083370;28;20041;-70
2022/09/02 03:18:12;;;;;;;12.35;7.15;;;;;;;22.51;73.39;100679.75;2083379;28;20471;-71
2022/09/02 03:19:35;;;;;;;14.07;6.70;;;;;;;22.44;73.56;100686.28;2082986;28;20046;-70
2022/09/02 03:20:56;;;;;;;12.70;7.38;;;;;;;22.41;73.93;100681.88;2087748;28;20052;-70
2022/09/02 03:22:19;;;;;;;14.43;7.43;;;;;;;22.44;73.80;100688.97;2091363;28;20044;-70
2022/09/02 03:23:42;;;;;;;10.90;7.00;;;;;;;22.48;73.83;100685.22;2096503;28;20048;-70
2022/09/02 03:25:08;;;;;;;15.48;7.13;;;;;;;22.51;73.60;100685.13;2085427;28;20037;-70
2022/09/02 03:26:31;;;;;;;16.27;7.40;;;;;;;22.56;73.22;100688.53;2085348;28;20500;-70
2022/09/02 03:27:53;;;;;;;12.77;7.40;;;;;;;22.61;73.19;100695.50;2083485;28;20037;-70
2022/09/02 03:29:16;;;;;;;14.15;7.65;;;;;;;22.65;72.83;100689.06;2085626;28;20096;-70
2022/09/02 03:30:40;;;;;;;14.27;7.60;;;;;;;22.68;72.75;100688.09;2087620;28;20431;-70
2022/09/02 03:32:04;;;;;;;12.38;7.85;;;;;;;22.69;72.56;100687.16;2094041;28;20044;-70
2022/09/02 03:33:25;;;;;;;15.23;6.82;;;;;;;22.62;72.43;100689.19;2096352;28;20041;-70
2022/09/02 03:34:48;;;;;;;12.88;6.20;;;;;;;22.53;72.60;100688.63;2081731;28;20048;-70
2022/09/02 03:36:21;;;;;;;16.45;7.03;;;;;;;22.48;72.69;100685.22;2076405;28;20069;-70
2022/09/02 03:37:44;;;;;;;13.60;6.38;;;;;;;22.48;72.79;100687.91;2085787;28;20107;-70
2022/09/02 03:39:09;;;;;;;9.77;6.45;;;;;;;22.51;72.74;100685.13;2077201;28;20569;-70
2022/09/02 03:40:34;;;;;;;12.38;7.13;;;;;;;22.54;72.46;100691.28;2083821;28;20489;-70
2022/09/02 03:41:57;;;;;;;14.27;7.22;;;;;;;22.56;72.60;100683.16;2077627;28;20048;-70
2022/09/02 03:43:19;;;;;;;12.52;6.65;;;;;;;22.61;72.43;100681.19;2082854;28;20319;-70
2022/09/02 03:44:41;;;;;;;9.82;6.05;;;;;;;22.61;72.35;100682.06;2085314;28;20556;-70
2022/09/02 03:46:04;;;;;;;11.30;7.18;;;;;;;22.54;72.24;100693.09;2090360;28;20723;-70
2022/09/02 03:47:27;;;;;;;11.88;6.30;;;;;;;22.43;72.47;100689.91;2085755;28;20045;-71
2022/09/02 03:48:50;;;;;;;13.98;6.30;;;;;;;22.36;72.69;100688.34;2091936;28;20083;-70
2022/09/02 03:50:14;;;;;;;10.70;5.95;;;;;;;22.35;72.82;100687.47;2082905;28;20052;-70
2022/09/02 03:51:41;;;;;;;10.02;6.28;;;;;;;22.40;72.70;100690.88;2083344;28;20053;-70
2022/09/02 03:53:05;;;;;;;12.77;6.60;;;;;;;22.46;72.65;100684.38;2071718;28;20073;-71
2022/09/02 03:54:28;;;;;;;10.27;6.13;;;;;;;22.49;72.53;100682.50;2081218;28;20049;-70
2022/09/02 03:55:52;;;;;;;11.52;6.63;;;;;;;22.45;72.30;100685.34;2076654;28;20541;-70
2022/09/02 03:57:17;;;;;;;12.93;7.38;;;;;;;22.37;72.40;100684.72;2075552;28;20723;-70
2022/09/02 03:58:39;;;;;;;12.68;6.60;;;;;;;22.31;72.64;100687.63;2079434;28;20507;-70
2022/09/02 04:00:02;;;;;;;11.88;6.78;;;;;;;22.30;72.75;100685.88;2085674;28;20052;-70
2022/09/02 04:01:26;;;;;;;13.70;6.60;;;;;;;22.35;72.79;100681.19;2094731;28;20052;-70
2022/09/02 04:02:49;;;;;;;15.10;7.10;;;;;;;22.42;72.72;100689.00;2096279;28;20040;-70
2022/09/02 04:04:12;;;;;;;14.20;7.15;;;;;;;22.49;72.50;100687.00;2085725;28;20044;-70
2022/09/02 04:05:36;;;;;;;14.20;7.72;;;;;;;22.53;72.52;100692.19;2085038;28;20585;-70
2022/09/02 04:06:59;;;;;;;10.70;6.18;;;;;;;22.60;72.61;100687.47;2088053;28;20074;-71
2022/09/02 04:08:22;;;;;;;12.57;6.88;;;;;;;22.69;72.55;100691.69;2088134;28;20478;-71
2022/09/02 04:09:47;;;;;;;13.27;6.22;;;;;;;22.78;72.48;100689.56;2080983;28;20103;-70
2022/09/02 04:11:15;;;;;;;10.27;6.22;;;;;;;22.86;72.41;100689.28;2077377;28;20052;-70
2022/09/02 04:12:39;;;;;;;9.55;6.25;;;;;;;22.89;72.25;100694.56;2076120;28;20041;-71
2022/09/02 04:14:01;;;;;;;11.27;6.03;;;;;;;22.94;72.16;100684.50;2086088;28;20052;-71
2022/09/02 04:15:25;;;;;;;10.73;5.55;;;;;;;22.99;72.13;100687.91;2083730;28;20111;-71
2022/09/02 04:16:49;;;;;;;12.88;6.68;;;;;;;23.09;72.04;100694.72;2084080;28;20124;-70
2022/09/02 04:18:10;;;;;;;11.43;6.10;;;;;;;23.18;72.13;100694.34;2078960;28;20398;-71
2022/09/02 04:19:34;;;;;;;11.65;5.63;;;;;;;23.23;71.77;100696.91;2075889;28;20053;-71
2022/09/02 04:20:59;;;;;;;12.40;6.00;;;;;;;23.32;71.70;100704.63;2084716;28;20041;-70
2022/09/02 04:22:21;;;;;;;11.50;6.45;;;;;;;23.42;71.69;100700.66;2079333;28;20050;-70
2022/09/02 04:23:44;;;;;;;9.35;5.57;;;;;;;23.54;71.55;100697.53;2077056;28;20609;-71
2022/09/02 04:25:09;;;;;;;12.05;6.30;;;;;;;23.66;71.03;100702.44;2087199;28;20053;-70
2022/09/02 04:26:34;;;;;;;14.52;6.70;;;;;;;23.79;70.64;100697.44;2079170;28;20704;-70
2022/09/02 04:27:55;;;;;;;15.45;7.60;;;;;;;23.90;70.16;100697.88;2090953;28;20907;-70
2022/09/02 04:29:19;;;;;;;14.10;7.90;;;;;;;24.02;70.00;100701.91;2087180;28;20037;-70
2022/09/02 04:30:44;;;;;;;14.15;9.00;;;;;;;24.11;69.58;100706.91;2091440;28;20048;-71
2022/09/02 04:32:07;;;;;;;13.05;7.80;;;;;;;24.21;69.37;100705.63;2086882;28;20493;-71
2022/09/02 04:33:29;;;;;;;12.52;7.63;;;;;;;24.31;69.00;100711.50;2086346;28;20040;-70
2022/09/02 04:34:52;;;;;;;13.73;6.68;;;;;;;24.41;68.99;100713.78;2078612;28;20046;-70
2022/09/02 04:36:18;;;;;;;11.85;6.60;;;;;;;24.53;68.71;100712.38;2077114;28;20049;-70
2022/09/02 04:37:41;;;;;;;12.15;5.72;;;;;;;24.65;68.42;100713.66;2087292;28;20045;-70
2022/09/02 04:39:05;;;;;;;12.75;7.53;;;;;;;24.77;68.30;100705.03;2092752;28;20690;-70
2022/09/02 04:40:30;;;;;;;15.23;9.00;;;;;;;24.89;67.93;100716.19;2095463;28;20139;-71
2022/09/02 04:41:54;;;;;;;13.18;8.02;;;;;;;25.02;67.60;100717.41;2086269;28;20579;-70
2022/09/02 04:43:18;;;;;;;18.95;10.38;;;;;;;25.11;67.62;100713.41;2084860;28;20569;-71
2022/09/02 04:44:41;;;;;;;13.15;6.07;;;;;;;25.22;67.20;100715.63;2083957;28;20052;-70
2022/09/02 04:46:04;;;;;;;15.20;6.15;;;;;;;25.31;67.26;100717.91;2085231;28;20521;-71
2022/09/02 04:47:27;;;;;;;12.48;6.43;;;;;;;25.39;66.83;100721.16;2087136;28;20057;-70
2022/09/02 04:48:50;;;;;;;11.88;5.38;;;;;;;25.50;66.78;100715.22;2095248;28;20036;-71
2022/09/02 04:50:13;;;;;;;21.13;7.60;;;;;;;25.61;66.81;100711.09;2082070;28;20057;-70
2022/09/02 04:51:53;;;;;;;20.50;10.88;;;;;;;25.74;66.29;100704.16;2089986;28;20072;-70
2022/09/02 04:53:16;;;;;;;15.32;10.00;;;;;;;25.88;65.98;100716.16;2088295;28;20190;-70
2022/09/02 04:54:39;;;;;;;20.30;12.02;;;;;;;26.01;65.87;100714.59;2080878;28;20049;-70
2022/09/02 04:56:03;;;;;;;14.73;5.95;;;;;;;26.14;65.55;100716.63;2092087;28;20575;-71
2022/09/02 04:57:28;;;;;;;9.98;5.45;;;;;;;26.27;65.04;100716.03;2084114;28;20047;-71
2022/09/02 04:58:50;;;;;;;9.90;5.15;;;;;;;26.38;64.71;100719.13;2079325;28;20093;-70
2022/09/02 05:00:17;;;;;;;12.02;6.50;;;;;;;26.50;64.51;100713.06;2078938;28;20596;-70
2022/09/02 05:01:41;;;;;;;9.82;6.05;;;;;;;26.66;64.07;100710.44;2078282;28;20060;-70
2022/09/02 05:03:10;;;;;;;13.18;6.22;;;;;;;26.81;63.76;100712.34;2080316;28;20569;-71
2022/09/02 05:04:34;;;;;;;16.90;8.73;;;;;;;26.96;63.10;100707.06;2081156;28;20446;-71
2022/09/02 05:05:59;;;;;;;13.45;8.80;;;;;;;27.09;62.48;100712.69;2085660;28;20087;-71
2022/09/02 05:07:22;;;;;;;19.20;11.15;;;;;;;27.20;62.28;100710.28;2084380;28;20041;-71
2022/09/02 05:08:45;;;;;;;21.77;10.60;;;;;;;27.31;61.94;100713.25;2091454;28;20032;-71
2022/09/02 05:10:12;;;;;;;17.92;8.82;;;;;;;27.44;61.83;100715.34;2095072;28;20080;-71
2022/09/02 05:11:37;;;;;;;18.55;9.77;;;;;;;27.55;61.60;100711.09;2084977;28;20063;-71
2022/09/02 05:13:02;;;;;;;21.42;11.60;;;;;;;27.70;61.31;100709.34;2086867;28;20441;-71
2022/09/02 05:14:27;;;;;;;12.73;7.13;;;;;;;27.84;61.00;100712.16;2086875;28;20049;-71
2022/09/02 05:15:49;;;;;;;9.32;4.60;;;;;;;27.97;60.38;100715.91;2088828;28;20168;-71
2022/09/02 05:17:14;;;;;;;13.85;6.95;;;;;;;28.08;60.07;100716.19;2083513;28;20052;-71
2022/09/02 05:18:39;;;;;;;9.75;4.88;;;;;;;28.18;59.20;100721.13;2086709;28;20087;-71
2022/09/02 05:20:04;;;;;;;11.43;5.82;;;;;;;28.27;58.96;100726.03;2094539;28;20040;-71
2022/09/02 05:21:29;;;;;;;13.38;6.22;;;;;;;28.34;58.76;100717.44;2092803;28;20135;-71
2022/09/02 05:22:52;;;;;;;16.92;8.13;;;;;;;28.50;58.73;100718.25;2080811;28;20045;-70
2022/09/02 05:24:15;;;;;;;17.77;9.18;;;;;;;28.66;58.43;100717.34;2100789;28;20056;-71
2022/09/02 05:25:38;;;;;;;11.93;6.93;;;;;;;28.83;57.83;100720.81;2093025;28;20033;-71
2022/09/02 05:27:00;;;;;;;13.15;5.95;;;;;;;28.97;57.50;100725.41;2094822;28;20044;-71
2022/09/02 05:28:27;;;;;;;11.13;5.13;;;;;;;29.13;57.13;100715.38;2086680;28;20570;-70
2022/09/02 05:29:50;;;;;;;9.30;5.47;;;;;;;29.27;56.58;100723.53;2079965;28;20065;-71
2022/09/02 05:31:17;;;;;;;8.15;4.80;;;;;;;29.44;56.61;100727.94;2084485;28;20090;-70
2022/09/02 05:32:41;;;;;;;10.23;5.03;;;;;;;29.59;56.33;100720.66;2082041;28;20576;-71
2022/09/02 05:34:03;;;;;;;12.70;6.53;;;;;;;29.74;55.71;100727.81;2080243;28;20386;-71
2022/09/02 05:35:27;;;;;;;11.48;5.15;;;;;;;29.89;55.34;100735.00;2104422;28;20052;-71
2022/09/02 05:36:49;;;;;;;9.00;5.22;;;;;;;30.05;55.15;100743.09;2086860;28;20584;-71
2022/09/02 05:38:13;;;;;;;13.05;8.27;;;;;;;30.19;54.45;100732.16;2087662;28;20082;-71
2022/09/02 05:39:35;;;;;;;15.73;10.23;;;;;;;30.34;54.37;100739.28;2083993;28;20044;-70
2022/09/02 05:40:58;;;;;;;13.35;7.47;;;;;;;30.45;53.90;100734.00;2091798;28;20135;-71
2022/09/02 05:42:21;;;;;;;17.05;8.63;;;;;;;30.59;53.60;100740.41;2086692;28;20052;-71
2022/09/02 05:43:48;;;;;;;14.95;8.93;;;;;;;30.71;52.94;100743.16;2084536;28;20045;-71
2022/09/02 05:45:12;;;;;;;14.90;8.80;;;;;;;30.82;52.75;100735.13;2083908;28;20144;-72
2022/09/02 05:46:36;;;;;;;11.30;8.00;;;;;;;30.95;52.30;100742.44;2092175;28;20079;-72
2022/09/02 05:49:04;;;;;;;11.38;7.22;;;;;;;31.05;52.14;100739.00;2086908;28;20049;-72
2022/09/02 05:49:41;;;;;;;13.93;7.30;;;;;;;31.17;51.84;100734.56;2088464;28;20489;-72
2022/09/02 05:51:06;;;;;;;10.93;6.45;;;;;;;31.32;51.67;100735.28;2091384;28;20044;-72
2022/09/02 05:52:31;;;;;;;10.65;6.03;;;;;;;31.46;51.43;100736.06;2089573;28;20056;-72
2022/09/02 05:57:14;;;;;;;9.80;4.97;;;;;;;31.88;50.25;100740.31;2010692;23;21867;-77
2022/09/02 05:58:45;;;;;;;11.50;4.88;;;;;;;32.00;50.41;100744.88;2062181;28;20043;-73
2022/09/02 06:00:11;;;;;;;11.80;4.50;;;;;;;32.15;49.79;100747.47;2051061;28;20149;-73
2022/09/02 06:01:36;;;;;;;6.63;3.97;;;;;;;32.26;49.40;100750.28;2060258;28;20065;-73
2022/09/02 06:02:59;;;;;;;6.20;3.58;;;;;;;32.34;48.49;100753.31;2056489;28;20510;-73
2022/09/02 06:04:27;;;;;;;13.25;4.72;;;;;;;32.42;48.23;100751.75;2051887;28;20054;-73
2022/09/02 06:05:55;;;;;;;11.75;4.30;;;;;;;32.48;47.64;100744.06;2053616;28;20045;-73
2022/09/02 06:07:20;;;;;;;7.10;3.67;;;;;;;32.52;47.40;100746.44;2053700;28;20062;-73
2022/09/02 06:08:43;;;;;;;10.93;4.82;;;;;;;32.59;47.39;100750.47;2060116;28;20474;-74
2022/09/02 06:10:07;;;;;;;8.88;4.15;;;;;;;32.71;47.24;100756.88;2051704;28;20046;-73
2022/09/02 06:11:29;;;;;;;9.88;4.53;;;;;;;32.81;46.96;100756.06;2053318;28;20569;-73
2022/09/02 06:12:52;;;;;;;;;;;;;;;32.84;47.29;100752.19;2045956;29;20106;-73
2022/09/02 06:14:20;;;;;;;7.40;4.03;;;;;;;32.98;47.39;100751.13;2059095;28;19961;-73
2022/09/02 06:15:46;;;;;;;9.80;4.50;;;;;;;33.11;47.01;100747.31;2047909;29;20043;-73
2022/09/02 06:17:10;;;;;;;7.50;3.70;;;;;;;33.22;46.91;100746.50;2043608;29;20050;-73
2022/09/02 06:18:44;;;;;;;9.00;4.13;;;;;;;33.28;46.20;100754.22;2051876;28;20054;-73
2022/09/02 06:20:08;;;;;;;6.93;3.83;;;;;;;33.31;45.99;100750.38;2060668;28;20047;-73
2022/09/02 06:21:30;;;;;;;8.50;3.97;;;;;;;33.34;46.13;100756.50;2050058;28;20051;-72
2022/09/02 06:22:54;;;;;;;12.02;4.03;;;;;;;33.41;46.26;100748.66;2057237;28;20805;-73
2022/09/02 06:24:17;;;;;;;5.63;3.45;;;;;;;33.54;46.32;100750.28;2045119;29;20102;-73
2022/09/02 06:25:40;;;;;;;10.57;3.72;;;;;;;33.67;46.68;100749.31;2055395;28;20490;-74
2022/09/02 06:27:07;;;;;;;9.82;3.80;;;;;;;33.77;46.74;100748.44;2052621;28;20087;-72
2022/09/02 06:28:32;;;;;;;9.68;3.75;;;;;;;33.90;45.99;100754.66;2054482;28;20395;-73
2022/09/02 06:29:56;;;;;;;10.00;3.67;;;;;;;34.01;45.56;100751.91;2050753;28;20046;-72